Aviation Digital Data Service (ADDS)

Output produced by METARs form (0823 UTC 19 April 2019)
found at http://www.aviationweather.gov/metar/data/
 
Forecast for: ZBSJ (ZHENGDING , CN)
Text: TAF ZBSJ 190108Z 1906/2006 15004MPS 5000 BR NSC TX19/1907Z TN09/1921Z
Forecast period: 0600 UTC 19 April 2019 to 0600 UTC 20 April 2019
Forecast type: FROM: standard forecast or significant change
Winds: from the SSE (150 degrees) at 9 MPH (8 knots; 4.1 m/s)
Visibility: 3 miles (5 km)
Ceiling: unknown
Clouds: missing
Weather: BR  (mist)